Time;durP1;ratioP1;P1;durP2;ratioP2;P2;SDS_P1;SDS_P2;PMS_P1;PMS_P2;Temp;Humidity;BMP_temperature;BMP_pressure;BME280_temperature;BME280_humidity;BME280_pressure;Samples;Min_cycle;Max_cycle;Signal;HPM_P1;HPM_P2
2023/09/18 00:00:56;;;;;;;0.10;0.10;;;;;;;20.52;100.00;98405.22;5113783;28;20190;-57
2023/09/18 00:03:43;;;;;;;0.10;0.10;;;;;;;20.36;100.00;98411.53;5114909;28;20205;-57
2023/09/18 00:06:30;;;;;;;0.10;0.10;;;;;;;20.29;100.00;98415.97;5114601;28;20229;-57
2023/09/18 00:09:18;;;;;;;0.10;0.10;;;;;;;20.34;100.00;98410.88;5114935;28;20187;-57
2023/09/18 00:12:06;;;;;;;0.10;0.10;;;;;;;20.50;100.00;98413.50;5114933;28;20268;-57
2023/09/18 00:14:53;;;;;;;0.10;0.10;;;;;;;20.53;100.00;98401.53;5113478;28;20195;-57
2023/09/18 00:17:40;;;;;;;0.10;0.10;;;;;;;20.75;100.00;98383.69;5114678;28;20197;-57
2023/09/18 00:20:27;;;;;;;0.10;0.10;;;;;;;20.89;100.00;98371.28;5114638;28;20223;-57
2023/09/18 00:23:15;;;;;;;0.10;0.10;;;;;;;21.01;100.00;98357.19;5114429;28;20245;-57
2023/09/18 00:26:03;;;;;;;0.10;0.10;;;;;;;21.07;100.00;98361.00;5114464;28;20410;-57
2023/09/18 00:28:50;;;;;;;0.10;0.10;;;;;;;21.14;100.00;98367.34;5113943;28;20202;-57
2023/09/18 00:31:37;;;;;;;0.10;0.10;;;;;;;21.19;100.00;98361.38;5114197;28;20672;-57
2023/09/18 00:34:24;;;;;;;0.10;0.10;;;;;;;21.18;100.00;98348.94;5113400;28;20198;-57
2023/09/18 00:37:12;;;;;;;0.10;0.10;;;;;;;21.26;100.00;98348.84;5114376;28;20194;-57
2023/09/18 00:39:59;;;;;;;0.10;0.10;;;;;;;21.31;100.00;98343.75;5114139;28;20275;-57
2023/09/18 00:42:47;;;;;;;0.10;0.10;;;;;;;21.29;100.00;98352.03;5114146;28;20198;-57
2023/09/18 00:45:35;;;;;;;0.10;0.10;;;;;;;21.29;100.00;98343.94;5111714;28;20232;-57
2023/09/18 00:48:22;;;;;;;0.10;0.10;;;;;;;21.22;100.00;98339.44;5114111;28;20213;-57
2023/09/18 00:51:10;;;;;;;0.13;0.13;;;;;;;21.30;100.00;98342.91;5114164;28;20197;-57
2023/09/18 00:53:57;;;;;;;0.10;0.10;;;;;;;21.29;100.00;98338.56;5113998;28;20719;-57
2023/09/18 00:56:44;;;;;;;0.10;0.10;;;;;;;21.27;100.00;98332.53;5112979;28;20431;-57
2023/09/18 00:59:33;;;;;;;0.10;0.10;;;;;;;21.29;100.00;98329.63;5111610;28;20260;-57
2023/09/18 01:02:21;;;;;;;0.10;0.10;;;;;;;21.31;100.00;98317.66;5112995;28;20194;-57
2023/09/18 01:05:08;;;;;;;0.10;0.10;;;;;;;21.33;100.00;98312.09;5112982;28;20194;-57
2023/09/18 01:07:55;;;;;;;0.10;0.10;;;;;;;21.34;100.00;98309.22;5112680;28;20186;-57
2023/09/18 01:10:54;;;;;;;0.10;0.10;;;;;;;21.27;100.00;98310.13;5112700;28;20668;-57
2023/09/18 01:13:50;;;;;;;0.10;0.10;;;;;;;21.28;100.00;98306.41;5113619;28;20266;-57
2023/09/18 01:16:45;;;;;;;0.10;0.10;;;;;;;21.44;100.00;98303.53;5113435;28;20258;-57
2023/09/18 01:19:39;;;;;;;0.10;0.10;;;;;;;21.34;100.00;98303.00;5113571;28;20202;-57
2023/09/18 01:22:25;;;;;;;0.10;0.10;;;;;;;21.32;100.00;98296.94;5113347;28;20222;-57
2023/09/18 01:25:14;;;;;;;0.10;0.10;;;;;;;21.23;100.00;98296.19;5113472;28;20198;-57
2023/09/18 01:28:01;;;;;;;0.10;0.10;;;;;;;21.20;100.00;98307.31;5113556;28;20319;-57
2023/09/18 01:31:34;;;;;;;0.10;0.10;;;;;;;21.09;100.00;98322.09;5112252;28;20296;-58
2023/09/18 01:34:26;;;;;;;0.10;0.10;;;;;;;21.17;100.00;98309.56;5104023;28;20230;-57
2023/09/18 01:37:14;;;;;;;0.10;0.10;;;;;;;21.17;100.00;98306.88;5092898;28;20190;-57
2023/09/18 01:40:06;;;;;;;0.10;0.10;;;;;;;21.24;100.00;98305.09;5092094;28;20194;-57
2023/09/18 01:42:54;;;;;;;0.10;0.10;;;;;;;21.26;100.00;98312.00;5092844;28;20191;-57
2023/09/18 01:45:42;;;;;;;0.10;0.10;;;;;;;21.26;100.00;98303.06;5090454;28;20194;-57
2023/09/18 01:48:30;;;;;;;0.10;0.10;;;;;;;21.31;100.00;98301.47;5093063;28;20264;-57
2023/09/18 01:51:18;;;;;;;0.10;0.10;;;;;;;21.34;100.00;98294.91;5095677;28;20249;-58
2023/09/18 01:54:05;;;;;;;0.10;0.10;;;;;;;21.38;100.00;98293.50;5096914;28;20253;-57
2023/09/18 01:56:53;;;;;;;0.10;0.10;;;;;;;21.45;100.00;98291.72;5096892;28;20187;-57
2023/09/18 01:59:41;;;;;;;0.10;0.10;;;;;;;21.47;100.00;98289.66;5094662;28;20677;-57
2023/09/18 02:02:29;;;;;;;0.10;0.10;;;;;;;21.49;100.00;98281.38;5096742;28;20515;-58
2023/09/18 02:05:28;;;;;;;0.10;0.10;;;;;;;21.48;100.00;98269.78;5096929;28;20257;-57
2023/09/18 02:08:15;;;;;;;0.10;0.10;;;;;;;21.48;100.00;98260.88;5095782;28;20665;-57
2023/09/18 02:11:04;;;;;;;0.10;0.10;;;;;;;21.36;100.00;98269.44;5095831;28;20244;-57
2023/09/18 02:13:51;;;;;;;0.10;0.10;;;;;;;21.36;100.00;98252.44;5094363;28;20238;-57
2023/09/18 02:16:42;;;;;;;0.10;0.10;;;;;;;21.25;100.00;98247.50;5095656;28;20214;-57
2023/09/18 02:19:29;;;;;;;0.10;0.10;;;;;;;21.21;100.00;98240.81;5096709;28;20195;-57
2023/09/18 02:22:16;;;;;;;0.10;0.10;;;;;;;21.08;100.00;98242.31;5095400;28;20233;-57
2023/09/18 02:25:03;;;;;;;0.10;0.10;;;;;;;21.13;100.00;98245.31;5096614;28;20230;-57
2023/09/18 02:27:51;;;;;;;0.10;0.10;;;;;;;21.00;100.00;98242.41;5094970;28;20213;-57
2023/09/18 02:30:37;;;;;;;0.10;0.10;;;;;;;21.07;100.00;98242.50;5095082;28;20237;-57
2023/09/18 02:33:26;;;;;;;0.10;0.10;;;;;;;21.08;100.00;98245.03;5096295;28;20187;-57
2023/09/18 02:36:13;;;;;;;0.10;0.10;;;;;;;21.17;100.00;98236.84;5096510;28;20256;-57
2023/09/18 02:38:59;;;;;;;0.10;0.10;;;;;;;21.25;100.00;98239.44;5096381;28;20665;-57
2023/09/18 02:41:46;;;;;;;0.10;0.10;;;;;;;21.35;100.00;98232.75;5096121;28;20199;-57
2023/09/18 02:44:33;;;;;;;0.10;0.10;;;;;;;21.37;100.00;98222.63;5093643;28;20234;-57
2023/09/18 02:47:20;;;;;;;0.10;0.10;;;;;;;21.46;100.00;98236.81;5094939;28;20230;-57
2023/09/18 02:50:10;;;;;;;0.13;0.13;;;;;;;21.47;100.00;98234.94;5095000;28;20190;-57
2023/09/18 02:52:58;;;;;;;0.10;0.10;;;;;;;21.40;100.00;98254.56;5094836;28;20195;-57
2023/09/18 02:55:46;;;;;;;0.10;0.10;;;;;;;21.46;100.00;98311.41;5095952;28;20718;-57
2023/09/18 02:58:33;;;;;;;0.10;0.10;;;;;;;21.33;100.00;98318.31;5094655;28;20229;-58
2023/09/18 03:01:20;;;;;;;0.10;0.10;;;;;;;20.96;100.00;98324.59;5094857;28;20340;-58
2023/09/18 03:04:07;;;;;;;0.10;0.10;;;;;;;20.84;100.00;98343.06;5094862;28;20199;-59
2023/09/18 03:06:55;;;;;;;0.10;0.10;;;;;;;20.68;100.00;98355.84;5095452;28;20284;-59
2023/09/18 03:09:42;;;;;;;0.10;0.10;;;;;;;20.51;100.00;98369.44;5095671;28;20259;-59
2023/09/18 03:12:29;;;;;;;0.00;0.00;;;;;;;20.37;100.00;98372.03;5094560;28;20313;-59
2023/09/18 03:15:16;;;;;;;0.10;0.10;;;;;;;20.36;100.00;98370.34;5094068;28;20216;-58
2023/09/18 03:18:04;;;;;;;0.10;0.10;;;;;;;20.53;100.00;98371.94;5095470;28;20239;-58
2023/09/18 03:20:51;;;;;;;0.10;0.10;;;;;;;20.43;100.00;98364.09;5094399;28;20554;-59
2023/09/18 03:23:40;;;;;;;0.10;0.10;;;;;;;20.40;100.00;98342.09;5093908;28;20230;-59
2023/09/18 03:26:26;;;;;;;0.00;0.00;;;;;;;20.43;100.00;98339.06;5094208;28;20361;-59
2023/09/18 03:29:14;;;;;;;0.10;0.10;;;;;;;20.42;100.00;98332.81;5092614;28;20195;-59
2023/09/18 03:32:01;;;;;;;0.10;0.10;;;;;;;20.50;100.00;98331.94;5093907;28;20203;-58
2023/09/18 03:34:51;;;;;;;0.10;0.10;;;;;;;20.36;100.00;98327.31;5094228;28;20194;-58
2023/09/18 03:37:38;;;;;;;0.00;0.00;;;;;;;20.31;100.00;98325.19;5094158;28;20200;-58
2023/09/18 03:40:26;;;;;;;0.10;0.10;;;;;;;20.19;100.00;98315.88;5094846;28;20198;-58
2023/09/18 03:43:14;;;;;;;0.10;0.10;;;;;;;20.27;100.00;98300.50;5093829;28;20195;-58
2023/09/18 03:46:05;;;;;;;0.10;0.10;;;;;;;20.14;100.00;98285.97;5092610;28;20637;-58
2023/09/18 03:48:58;;;;;;;0.10;0.10;;;;;;;20.08;100.00;98273.28;5093399;28;20186;-58
2023/09/18 03:51:45;;;;;;;0.10;0.10;;;;;;;20.05;100.00;98271.75;5093831;28;20273;-58
2023/09/18 03:54:32;;;;;;;0.10;0.10;;;;;;;19.89;100.00;98264.69;5093719;28;20234;-58
2023/09/18 03:57:20;;;;;;;0.10;0.10;;;;;;;19.86;100.00;98254.25;5093588;28;20186;-58
2023/09/18 04:00:09;;;;;;;0.10;0.10;;;;;;;19.87;100.00;98253.25;5092329;28;20305;-58
2023/09/18 04:02:59;;;;;;;0.10;0.10;;;;;;;19.75;100.00;98252.00;5094398;28;20325;-58
2023/09/18 04:05:46;;;;;;;0.10;0.10;;;;;;;19.68;100.00;98262.59;5093539;28;20194;-58
2023/09/18 04:08:33;;;;;;;0.10;0.10;;;;;;;19.82;100.00;98273.63;5094300;28;20238;-58
2023/09/18 04:11:24;;;;;;;0.10;0.10;;;;;;;19.80;100.00;98273.81;5093437;28;20245;-58
2023/09/18 04:14:14;;;;;;;0.10;0.10;;;;;;;19.95;100.00;98272.00;5092559;28;20195;-58
2023/09/18 04:17:01;;;;;;;0.10;0.10;;;;;;;20.06;100.00;98261.84;5093416;28;20199;-58
2023/09/18 04:19:48;;;;;;;0.10;0.10;;;;;;;20.14;100.00;98269.84;5094371;28;20285;-58
2023/09/18 04:22:35;;;;;;;0.10;0.10;;;;;;;20.18;100.00;98263.09;5093161;28;20289;-58
2023/09/18 04:25:22;;;;;;;0.10;0.10;;;;;;;20.14;100.00;98264.47;5093226;28;20194;-58
2023/09/18 04:28:09;;;;;;;0.10;0.10;;;;;;;20.07;100.00;98258.97;5093964;28;20253;-58
2023/09/18 04:30:58;;;;;;;0.00;0.00;;;;;;;20.05;100.00;98239.50;5091825;28;20198;-58
2023/09/18 04:33:45;;;;;;;0.10;0.10;;;;;;;19.96;100.00;98249.47;5093000;28;20194;-58
2023/09/18 04:36:32;;;;;;;0.00;0.00;;;;;;;19.93;100.00;98257.06;5092920;28;20203;-58
2023/09/18 04:39:22;;;;;;;0.10;0.10;;;;;;;20.01;100.00;98263.22;5092849;28;20201;-59
2023/09/18 04:42:08;;;;;;;0.10;0.10;;;;;;;19.91;100.00;98256.44;5093866;28;20280;-58
2023/09/18 04:44:55;;;;;;;0.10;0.10;;;;;;;19.90;100.00;98268.19;5092275;28;20285;-58
2023/09/18 04:47:44;;;;;;;0.07;0.07;;;;;;;19.72;100.00;98271.16;5092557;28;20376;-58
2023/09/18 04:50:31;;;;;;;0.10;0.10;;;;;;;19.87;100.00;98269.38;5092662;28;20326;-58
2023/09/18 04:53:18;;;;;;;0.10;0.10;;;;;;;19.82;100.00;98268.25;5093621;28;20195;-58
2023/09/18 04:56:05;;;;;;;0.10;0.10;;;;;;;19.82;100.00;98269.09;5093578;28;20198;-58
2023/09/18 04:58:52;;;;;;;0.10;0.10;;;;;;;19.73;100.00;98267.47;5091250;28;20243;-58
2023/09/18 05:01:39;;;;;;;0.10;0.10;;;;;;;19.69;100.00;98272.38;5093451;28;20382;-58
2023/09/18 05:04:27;;;;;;;0.00;0.00;;;;;;;19.61;100.00;98269.72;5092562;28;20210;-58
2023/09/18 05:07:14;;;;;;;0.10;0.10;;;;;;;19.43;100.00;98278.03;5093263;28;20256;-58
2023/09/18 05:10:01;;;;;;;0.10;0.10;;;;;;;19.45;100.00;98273.31;5093184;28;20198;-58
2023/09/18 05:12:50;;;;;;;0.10;0.10;;;;;;;19.49;100.00;98256.81;5093410;28;20301;-58
2023/09/18 05:15:37;;;;;;;0.10;0.10;;;;;;;19.45;100.00;98261.72;5092082;28;20198;-58
2023/09/18 05:18:24;;;;;;;0.10;0.10;;;;;;;19.46;100.00;98247.28;5092974;28;20187;-58
2023/09/18 05:21:12;;;;;;;0.10;0.10;;;;;;;19.41;100.00;98242.47;5093106;28;20186;-58
2023/09/18 05:23:59;;;;;;;0.10;0.10;;;;;;;19.45;100.00;98242.94;5092849;28;20234;-58
2023/09/18 05:26:46;;;;;;;0.10;0.10;;;;;;;19.25;100.00;98226.44;5092546;28;20264;-57
2023/09/18 05:29:33;;;;;;;0.10;0.10;;;;;;;19.31;100.00;98235.63;5091621;28;20230;-58
2023/09/18 05:32:19;;;;;;;0.10;0.10;;;;;;;19.40;100.00;98221.16;5093101;28;20610;-58
2023/09/18 05:35:09;;;;;;;0.10;0.10;;;;;;;19.43;100.00;98205.50;5092076;28;20205;-57
2023/09/18 05:37:58;;;;;;;0.10;0.10;;;;;;;19.47;100.00;98227.47;5093034;28;20203;-58
2023/09/18 05:40:45;;;;;;;0.10;0.10;;;;;;;19.45;100.00;98232.19;5093131;28;20783;-58
2023/09/18 05:43:32;;;;;;;0.10;0.10;;;;;;;19.39;100.00;98259.72;5092857;28;20197;-58
2023/09/18 05:46:19;;;;;;;0.10;0.10;;;;;;;19.40;100.00;98280.22;5092936;28;20558;-58
2023/09/18 05:49:06;;;;;;;0.10;0.10;;;;;;;19.21;100.00;98277.97;5092728;28;20296;-57
2023/09/18 05:51:53;;;;;;;0.17;0.17;;;;;;;19.22;100.00;98285.84;5092702;28;20305;-57
2023/09/18 05:54:42;;;;;;;0.10;0.10;;;;;;;19.31;100.00;98292.88;5092965;28;20218;-58
2023/09/18 05:57:29;;;;;;;0.10;0.10;;;;;;;19.37;100.00;98289.47;5092803;28;20191;-58
2023/09/18 06:00:17;;;;;;;0.10;0.10;;;;;;;19.50;100.00;98301.50;5091131;28;20198;-58
2023/09/18 06:03:06;;;;;;;0.00;0.00;;;;;;;19.53;100.00;98291.22;5092605;28;20195;-58
2023/09/18 06:05:53;;;;;;;0.10;0.10;;;;;;;19.52;100.00;98304.84;5092431;28;20206;-57
2023/09/18 06:08:40;;;;;;;0.10;0.10;;;;;;;19.58;100.00;98299.63;5092347;28;20705;-57
2023/09/18 06:11:28;;;;;;;0.10;0.10;;;;;;;19.65;100.00;98302.44;5092635;28;20191;-57
2023/09/18 06:14:15;;;;;;;0.10;0.10;;;;;;;19.84;100.00;98304.69;5091310;28;20298;-58
2023/09/18 06:17:02;;;;;;;0.10;0.10;;;;;;;19.94;100.00;98301.75;5092667;28;20669;-58
2023/09/18 06:19:49;;;;;;;0.10;0.10;;;;;;;20.12;100.00;98291.53;5092753;28;20187;-57
2023/09/18 06:22:36;;;;;;;0.10;0.10;;;;;;;20.20;100.00;98296.03;5092425;28;20226;-58
2023/09/18 06:25:24;;;;;;;0.10;0.10;;;;;;;20.23;100.00;98288.41;5093575;28;20241;-57
2023/09/18 06:28:12;;;;;;;0.10;0.10;;;;;;;20.22;100.00;98300.19;5092606;28;20225;-57
2023/09/18 06:30:59;;;;;;;0.10;0.10;;;;;;;20.08;100.00;98292.94;5091216;28;20669;-58
2023/09/18 06:33:46;;;;;;;0.10;0.10;;;;;;;20.14;100.00;98289.50;5092545;28;20682;-57
2023/09/18 06:36:33;;;;;;;0.10;0.10;;;;;;;20.14;100.00;98286.81;5093834;28;20229;-58
2023/09/18 06:39:22;;;;;;;0.10;0.10;;;;;;;20.08;100.00;98284.88;5096267;28;20314;-57
2023/09/18 06:42:09;;;;;;;0.10;0.10;;;;;;;19.98;100.00;98295.84;5096262;28;20803;-57
2023/09/18 06:44:57;;;;;;;0.10;0.10;;;;;;;20.07;100.00;98275.09;5094905;28;20317;-57
2023/09/18 06:47:44;;;;;;;0.10;0.10;;;;;;;20.04;100.00;98278.16;5096109;28;20191;-57
2023/09/18 06:50:31;;;;;;;0.10;0.10;;;;;;;19.98;100.00;98277.03;5095111;28;20195;-57
2023/09/18 06:53:18;;;;;;;0.10;0.10;;;;;;;19.96;100.00;98275.53;5095964;28;20728;-57
2023/09/18 06:56:05;;;;;;;0.03;0.03;;;;;;;19.83;100.00;98272.59;5095982;28;20274;-57
2023/09/18 06:58:52;;;;;;;0.10;0.10;;;;;;;19.79;100.00;98277.50;5094604;28;20661;-57
2023/09/18 07:01:42;;;;;;;0.10;0.10;;;;;;;19.97;100.00;98278.03;5095849;28;20198;-57
2023/09/18 07:04:29;;;;;;;0.10;0.10;;;;;;;19.90;100.00;98271.72;5095793;28;20210;-57
2023/09/18 07:07:16;;;;;;;0.10;0.10;;;;;;;20.05;100.00;98282.50;5095734;28;20194;-57
2023/09/18 07:10:03;;;;;;;0.10;0.10;;;;;;;19.93;100.00;98286.66;5095455;28;20326;-57
2023/09/18 07:12:51;;;;;;;0.00;0.00;;;;;;;20.00;100.00;98293.00;5095573;28;20286;-57
2023/09/18 07:15:38;;;;;;;0.10;0.10;;;;;;;20.09;100.00;98293.75;5094296;28;20195;-57
2023/09/18 07:18:26;;;;;;;0.10;0.10;;;;;;;20.07;100.00;98310.03;5095538;28;20266;-57
2023/09/18 07:21:13;;;;;;;0.10;0.10;;;;;;;19.88;100.00;98303.31;5095510;28;20207;-57
2023/09/18 07:24:00;;;;;;;0.10;0.10;;;;;;;20.12;100.00;98307.66;5095125;28;20231;-57
2023/09/18 07:26:48;;;;;;;0.00;0.00;;;;;;;-144.59;100.00;98307.66;5095327;28;20244;-58
2023/09/18 07:29:35;;;;;;;0.10;0.10;;;;;;;20.10;100.00;98311.56;5093882;28;20792;-57
2023/09/18 07:32:23;;;;;;;0.10;0.10;;;;;;;20.11;100.00;98316.75;5095250;28;20198;-57
2023/09/18 07:35:25;;;;;;;0.10;0.10;;;;;;;20.15;100.00;98314.53;5095215;28;20191;-57
2023/09/18 07:38:12;;;;;;;0.00;0.00;;;;;;;20.09;100.00;98317.97;5095077;28;20265;-57
2023/09/18 07:40:59;;;;;;;0.10;0.10;;;;;;;20.24;100.00;98300.00;5095125;28;20306;-57
2023/09/18 07:43:46;;;;;;;0.10;0.10;;;;;;;20.19;100.00;98300.56;5093831;28;20260;-57
2023/09/18 07:46:33;;;;;;;0.10;0.10;;;;;;;20.20;100.00;98312.16;5094838;28;20195;-57
2023/09/18 07:49:20;;;;;;;0.10;0.10;;;;;;;20.11;100.00;98327.50;5094005;28;20218;-57
2023/09/18 07:52:09;;;;;;;0.10;0.10;;;;;;;20.32;100.00;98337.59;5094901;28;20203;-57
2023/09/18 07:54:57;;;;;;;0.00;0.00;;;;;;;20.25;100.00;98325.88;5094779;28;20198;-57
2023/09/18 07:57:45;;;;;;;0.10;0.10;;;;;;;20.26;100.00;98327.56;5094812;28;20211;-57
2023/09/18 08:00:33;;;;;;;0.10;0.10;;;;;;;20.28;100.00;98341.69;5093390;28;20191;-57
2023/09/18 08:03:19;;;;;;;0.10;0.10;;;;;;;20.17;100.00;98340.25;5094521;28;20265;-57
2023/09/18 08:06:07;;;;;;;0.00;0.00;;;;;;;20.34;100.00;98330.19;5094753;28;20210;-57
2023/09/18 08:08:55;;;;;;;0.10;0.10;;;;;;;20.34;100.00;98319.44;5094593;28;20705;-57
2023/09/18 08:11:43;;;;;;;0.10;0.10;;;;;;;20.48;100.00;98331.28;5094465;28;20298;-57
2023/09/18 08:14:35;;;;;;;0.10;0.10;;;;;;;20.38;100.00;98328.81;5092990;28;20199;-57
2023/09/18 08:17:22;;;;;;;0.10;0.10;;;;;;;20.43;100.00;98342.59;5094322;28;20186;-57
2023/09/18 08:20:13;;;;;;;0.10;0.10;;;;;;;20.66;100.00;98339.03;5094417;28;20194;-56
2023/09/18 08:23:01;;;;;;;0.10;0.10;;;;;;;20.83;100.00;98335.16;5094102;28;20223;-56
2023/09/18 08:25:51;;;;;;;0.10;0.10;;;;;;;20.82;100.00;98326.25;5094299;28;20261;-57
2023/09/18 08:28:43;;;;;;;0.10;0.10;;;;;;;21.27;100.00;98334.38;5093114;28;20202;-57
2023/09/18 08:31:31;;;;;;;0.10;0.10;;;;;;;21.48;100.00;98331.75;5094034;28;20198;-57
2023/09/18 08:34:18;;;;;;;0.10;0.10;;;;;;;21.53;100.00;98323.97;5094053;28;20241;-57
2023/09/18 08:37:09;;;;;;;0.00;0.00;;;;;;;21.48;100.00;98322.84;5094245;28;20237;-57
2023/09/18 08:39:55;;;;;;;0.10;0.10;;;;;;;21.58;100.00;98316.13;5093833;28;20723;-57
2023/09/18 08:42:48;;;;;;;0.10;0.10;;;;;;;21.66;100.00;98331.34;5093907;28;20190;-57
2023/09/18 08:45:40;;;;;;;0.03;0.03;;;;;;;21.79;100.00;98320.72;5092625;28;20191;-56
2023/09/18 08:48:34;;;;;;;0.10;0.10;;;;;;;-144.59;100.00;73595.56;5093787;28;20322;-57
2023/09/18 08:51:22;;;;;;;0.10;0.10;;;;;;;22.05;100.00;98322.88;5093303;28;20289;-57
2023/09/18 08:54:10;;;;;;;0.10;0.10;;;;;;;21.99;100.00;98324.47;5093712;28;20202;-57
2023/09/18 08:56:57;;;;;;;0.10;0.10;;;;;;;21.89;100.00;98325.81;5093709;28;20194;-57
2023/09/18 08:59:47;;;;;;;0.10;0.10;;;;;;;22.17;100.00;98326.75;5092031;28;20210;-57
2023/09/18 09:02:34;;;;;;;0.10;0.10;;;;;;;22.70;100.00;98327.25;5093328;28;20210;-57
2023/09/18 09:05:21;;;;;;;0.00;0.00;;;;;;;22.72;100.00;98314.38;5093552;28;20195;-58
2023/09/18 09:08:09;;;;;;;0.10;0.10;;;;;;;22.94;100.00;98311.63;5093079;28;20195;-58
2023/09/18 09:10:57;;;;;;;0.10;0.10;;;;;;;22.68;100.00;98312.25;5093209;28;20226;-57
2023/09/18 09:13:44;;;;;;;0.10;0.10;;;;;;;22.19;100.00;98304.97;5092165;28;20194;-57
2023/09/18 09:16:34;;;;;;;0.10;0.10;;;;;;;22.21;100.00;98313.75;5092338;28;20212;-57
2023/09/18 09:19:30;;;;;;;0.10;0.10;;;;;;;22.52;100.00;98316.09;5093206;28;20190;-57
2023/09/18 09:22:22;;;;;;;0.10;0.10;;;;;;;22.42;100.00;98319.13;5093159;28;20214;-57
2023/09/18 09:25:26;;;;;;;0.10;0.10;;;;;;;22.53;100.00;98297.00;5093230;28;20272;-57
2023/09/18 09:28:14;;;;;;;0.10;0.10;;;;;;;22.43;100.00;98285.69;5093069;28;20198;-57
2023/09/18 09:31:02;;;;;;;0.10;0.10;;;;;;;22.14;100.00;98291.25;5092117;28;20219;-57
2023/09/18 09:33:53;;;;;;;0.00;0.00;;;;;;;22.20;100.00;98304.81;5093134;28;20285;-57
2023/09/18 09:36:53;;;;;;;0.10;0.10;;;;;;;22.41;100.00;98292.31;5093107;28;20210;-57
2023/09/18 09:39:51;;;;;;;0.10;0.10;;;;;;;22.41;100.00;98292.31;5093147;28;20204;-57
2023/09/18 09:42:40;;;;;;;0.10;0.10;;;;;;;22.42;100.00;98300.22;5093100;28;20186;-57
2023/09/18 09:45:30;;;;;;;0.10;0.10;;;;;;;22.40;100.00;98310.38;5091533;28;20191;-57
2023/09/18 09:48:17;;;;;;;0.00;0.00;;;;;;;22.44;100.00;98308.97;5092995;28;20237;-57
2023/09/18 09:51:07;;;;;;;0.10;0.10;;;;;;;22.78;100.00;98310.06;5091837;28;20260;-57
2023/09/18 09:53:53;;;;;;;0.10;0.10;;;;;;;23.04;100.00;98309.41;5092755;28;20207;-57
2023/09/18 09:56:45;;;;;;;0.10;0.10;;;;;;;23.02;100.00;98301.50;5093070;28;20194;-57
2023/09/18 09:59:35;;;;;;;0.10;0.10;;;;;;;23.08;100.00;98313.41;5090654;28;20199;-58
2023/09/18 10:02:22;;;;;;;0.03;0.03;;;;;;;23.08;100.00;98329.63;5092703;28;20187;-57
2023/09/18 10:05:12;;;;;;;0.10;0.10;;;;;;;22.98;100.00;98331.84;5092837;28;20791;-57
2023/09/18 10:08:02;;;;;;;0.10;0.10;;;;;;;23.05;100.00;98335.41;5092722;28;20191;-58
2023/09/18 10:10:51;;;;;;;0.05;0.05;;;;;;;22.69;100.00;98339.06;5092650;28;20269;-57
2023/09/18 10:13:43;;;;;;;0.10;0.10;;;;;;;22.63;100.00;98347.94;5095441;28;20190;-58
2023/09/18 10:16:32;;;;;;;0.10;0.10;;;;;;;22.45;100.00;98344.88;5096789;28;20202;-57
2023/09/18 10:19:28;;;;;;;0.10;0.10;;;;;;;22.65;100.00;98342.34;5096738;28;20272;-57
2023/09/18 10:22:26;;;;;;;0.10;0.10;;;;;;;22.51;100.00;98339.53;5096648;28;20206;-57
2023/09/18 10:25:18;;;;;;;0.10;0.10;;;;;;;22.64;100.00;98332.56;5096581;28;20191;-57
2023/09/18 10:28:07;;;;;;;0.10;0.10;;;;;;;22.54;100.00;98338.31;5096586;28;20289;-57
2023/09/18 10:30:57;;;;;;;0.10;0.10;;;;;;;22.59;100.00;98314.28;5094749;28;20214;-57
2023/09/18 10:33:44;;;;;;;0.10;0.10;;;;;;;22.81;100.00;98305.09;5096361;28;20740;-57
2023/09/18 10:36:33;;;;;;;0.10;0.10;;;;;;;22.92;100.00;98308.31;5096259;28;20191;-57
2023/09/18 10:39:23;;;;;;;0.10;0.10;;;;;;;23.24;100.00;98323.03;5096340;28;20199;-57
2023/09/18 10:42:14;;;;;;;0.10;0.10;;;;;;;23.02;100.00;98323.13;5096285;28;20195;-57
2023/09/18 10:45:04;;;;;;;0.10;0.10;;;;;;;23.14;100.00;98331.50;5094854;28;20194;-57
2023/09/18 10:47:52;;;;;;;0.10;0.10;;;;;;;23.40;100.00;98331.66;5096160;28;21129;-57
2023/09/18 10:50:40;;;;;;;0.05;0.05;;;;;;;23.40;100.00;98338.94;5095967;28;20211;-57
2023/09/18 10:53:27;;;;;;;0.10;0.10;;;;;;;23.40;100.00;98325.41;5096058;28;20203;-57
2023/09/18 10:56:16;;;;;;;0.10;0.10;;;;;;;23.39;100.00;98310.25;5095874;28;20313;-57
2023/09/18 10:59:08;;;;;;;0.10;0.10;;;;;;;23.30;100.00;98309.56;5094742;28;20199;-57
2023/09/18 11:01:55;;;;;;;0.10;0.10;;;;;;;23.35;100.00;98314.34;5096056;28;20286;-57
2023/09/18 11:04:43;;;;;;;0.00;0.00;;;;;;;23.15;100.00;98298.03;5095760;28;20268;-57
2023/09/18 11:07:29;;;;;;;0.10;0.10;;;;;;;23.15;100.00;98298.03;5095736;28;20653;-57
2023/09/18 11:10:27;;;;;;;0.10;0.10;;;;;;;23.19;100.00;98295.78;5095683;28;20280;-57
2023/09/18 11:13:29;;;;;;;0.10;0.10;;;;;;;23.48;100.00;98313.59;5095371;28;20198;-57
2023/09/18 11:16:38;;;;;;;0.00;0.00;;;;;;;23.24;100.00;98304.94;5095581;28;20232;-57
2023/09/18 11:19:29;;;;;;;0.10;0.10;;;;;;;23.08;100.00;98306.13;5095462;28;20269;-57
2023/09/18 11:22:16;;;;;;;0.10;0.10;;;;;;;23.35;100.00;98304.38;5094781;28;20199;-57
2023/09/18 11:25:34;;;;;;;0.10;0.10;;;;;;;23.62;100.00;98296.41;5095257;28;20195;-58
2023/09/18 11:28:24;;;;;;;0.10;0.10;;;;;;;24.13;100.00;98307.59;5095355;28;20202;-58
2023/09/18 11:31:12;;;;;;;0.10;0.10;;;;;;;24.02;100.00;98312.75;5095190;28;20308;-58
2023/09/18 11:34:00;;;;;;;0.10;0.10;;;;;;;23.95;100.00;98318.19;5094142;28;20195;-57
2023/09/18 11:36:46;;;;;;;0.00;0.00;;;;;;;23.53;100.00;98333.56;5095272;28;20195;-57
2023/09/18 11:39:35;;;;;;;0.10;0.10;;;;;;;23.29;100.00;98334.09;5095038;28;20753;-57
2023/09/18 11:42:25;;;;;;;0.10;0.10;;;;;;;23.28;100.00;98335.97;5094841;28;20187;-57
2023/09/18 11:45:18;;;;;;;0.10;0.10;;;;;;;23.31;100.00;98335.56;5093789;28;20268;-57
2023/09/18 11:48:07;;;;;;;0.10;0.10;;;;;;;23.22;100.00;98336.75;5095042;28;20253;-57
2023/09/18 11:50:58;;;;;;;0.10;0.10;;;;;;;23.13;100.00;98338.78;5094874;28;20249;-58
2023/09/18 11:53:45;;;;;;;0.10;0.10;;;;;;;23.25;100.00;98344.44;5095036;28;20256;-58
2023/09/18 11:56:33;;;;;;;0.10;0.10;;;;;;;23.39;100.00;98339.97;5094855;28;20198;-57
2023/09/18 11:59:34;;;;;;;0.10;0.10;;;;;;;23.41;100.00;98335.19;5093579;28;20202;-58
2023/09/18 12:02:35;;;;;;;0.10;0.10;;;;;;;22.91;100.00;98341.75;5094571;28;20180;-58
2023/09/18 12:05:25;;;;;;;0.10;0.10;;;;;;;22.78;100.00;98342.47;5094591;28;20198;-58
2023/09/18 12:08:14;;;;;;;0.10;0.10;;;;;;;22.70;100.00;98334.50;5094389;28;20190;-57
2023/09/18 12:11:06;;;;;;;0.10;0.10;;;;;;;22.87;100.00;98327.78;5094340;28;20281;-58
2023/09/18 12:13:53;;;;;;;0.10;0.10;;;;;;;23.12;100.00;98320.06;5093176;28;20207;-58
2023/09/18 12:16:40;;;;;;;0.10;0.10;;;;;;;22.96;100.00;98323.91;5094474;28;20192;-58
2023/09/18 12:19:27;;;;;;;0.10;0.10;;;;;;;22.95;100.00;98324.94;5094548;28;20190;-58
2023/09/18 12:22:16;;;;;;;0.10;0.10;;;;;;;23.14;100.00;98345.00;5094229;28;20186;-58
2023/09/18 12:25:15;;;;;;;0.10;0.10;;;;;;;23.19;100.00;98334.47;5094252;28;20266;-57
2023/09/18 12:28:03;;;;;;;0.10;0.10;;;;;;;23.37;100.00;98336.63;5094158;28;20183;-58
2023/09/18 12:30:55;;;;;;;0.10;0.10;;;;;;;23.62;100.00;98343.22;5092452;28;20245;-57
2023/09/18 12:33:44;;;;;;;0.10;0.10;;;;;;;23.51;100.00;98335.66;5093901;28;20191;-58
2023/09/18 12:36:31;;;;;;;0.10;0.10;;;;;;;23.86;100.00;98322.94;5093880;28;20673;-58
2023/09/18 12:39:19;;;;;;;0.10;0.10;;;;;;;23.86;100.00;98322.94;5094011;28;20195;-58
2023/09/18 12:42:07;;;;;;;0.10;0.10;;;;;;;24.36;100.00;98317.22;5093907;28;20199;-58
2023/09/18 12:44:55;;;;;;;0.10;0.10;;;;;;;24.25;100.00;98307.81;5092436;28;20210;-58
2023/09/18 12:47:43;;;;;;;0.10;0.10;;;;;;;24.93;100.00;98313.03;5093807;28;20210;-58
2023/09/18 12:50:30;;;;;;;0.10;0.10;;;;;;;25.24;100.00;98310.50;5093755;28;20461;-58
2023/09/18 12:53:23;;;;;;;0.10;0.10;;;;;;;25.40;100.00;98306.50;5093009;28;20701;-58
2023/09/18 12:56:12;;;;;;;0.00;0.00;;;;;;;27.45;100.00;98313.16;5093805;28;20213;-59
2023/09/18 12:59:02;;;;;;;0.00;0.00;;;;;;;27.40;100.00;98304.84;5092301;28;20195;-58
2023/09/18 13:01:53;;;;;;;0.10;0.10;;;;;;;26.97;100.00;98307.59;5093679;28;20312;-58
2023/09/18 13:04:40;;;;;;;0.10;0.10;;;;;;;27.22;100.00;98313.03;5093590;28;20191;-58